sensor_id;sensor_type;location;lat;lon;timestamp;temperature;humidity
592;DHT22;283;53.608;10.046;2022-11-03T00:01:00;7.50;92.80
592;DHT22;283;53.608;10.046;2022-11-03T00:03:28;7.60;92.90
592;DHT22;283;53.608;10.046;2022-11-03T00:05:55;7.50;92.70
592;DHT22;283;53.608;10.046;2022-11-03T00:08:34;7.60;92.80
592;DHT22;283;53.608;10.046;2022-11-03T00:11:06;7.50;92.90
592;DHT22;283;53.608;10.046;2022-11-03T00:13:34;7.50;92.80
592;DHT22;283;53.608;10.046;2022-11-03T00:16:01;7.50;92.80
592;DHT22;283;53.608;10.046;2022-11-03T00:18:29;7.50;92.80
592;DHT22;283;53.608;10.046;2022-11-03T00:20:58;7.50;92.80
592;DHT22;283;53.608;10.046;2022-11-03T00:23:29;7.50;92.80
592;DHT22;283;53.608;10.046;2022-11-03T00:26:05;7.40;92.70
592;DHT22;283;53.608;10.046;2022-11-03T00:28:33;7.50;92.90
592;DHT22;283;53.608;10.046;2022-11-03T00:31:04;7.40;92.90
592;DHT22;283;53.608;10.046;2022-11-03T00:33:32;7.40;92.90
592;DHT22;283;53.608;10.046;2022-11-03T00:36:00;7.40;92.90
592;DHT22;283;53.608;10.046;2022-11-03T00:38:28;7.40;92.90
592;DHT22;283;53.608;10.046;2022-11-03T00:40:56;7.40;93.00
592;DHT22;283;53.608;10.046;2022-11-03T00:43:26;7.40;92.90
592;DHT22;283;53.608;10.046;2022-11-03T00:45:54;7.40;92.90
592;DHT22;283;53.608;10.046;2022-11-03T00:48:22;7.40;92.90
592;DHT22;283;53.608;10.046;2022-11-03T00:50:59;7.40;92.80
592;DHT22;283;53.608;10.046;2022-11-03T00:53:27;7.40;92.80
592;DHT22;283;53.608;10.046;2022-11-03T00:55:55;7.50;92.80
592;DHT22;283;53.608;10.046;2022-11-03T00:58:22;7.50;92.80
592;DHT22;283;53.608;10.046;2022-11-03T01:00:58;7.50;92.60
592;DHT22;283;53.608;10.046;2022-11-03T01:03:26;7.50;92.70
592;DHT22;283;53.608;10.046;2022-11-03T01:05:53;7.50;92.80
592;DHT22;283;53.608;10.046;2022-11-03T01:08:38;7.40;92.90
592;DHT22;283;53.608;10.046;2022-11-03T01:11:07;7.50;92.90
592;DHT22;283;53.608;10.046;2022-11-03T01:13:52;7.50;92.80
592;DHT22;283;53.608;10.046;2022-11-03T01:16:21;7.50;92.70
592;DHT22;283;53.608;10.046;2022-11-03T01:18:49;7.50;92.70
592;DHT22;283;53.608;10.046;2022-11-03T01:21:16;7.50;92.70
592;DHT22;283;53.608;10.046;2022-11-03T01:23:44;7.60;92.60
592;DHT22;283;53.608;10.046;2022-11-03T01:26:13;7.50;92.40
592;DHT22;283;53.608;10.046;2022-11-03T01:28:41;7.60;92.40
592;DHT22;283;53.608;10.046;2022-11-03T01:31:10;7.60;92.40
592;DHT22;283;53.608;10.046;2022-11-03T01:33:39;7.80;92.60
592;DHT22;283;53.608;10.046;2022-11-03T01:36:07;7.60;92.50
592;DHT22;283;53.608;10.046;2022-11-03T01:38:35;7.70;92.50
592;DHT22;283;53.608;10.046;2022-11-03T01:41:04;7.70;92.30
592;DHT22;283;53.608;10.046;2022-11-03T01:43:32;7.60;92.40
592;DHT22;283;53.608;10.046;2022-11-03T01:46:01;7.60;92.40
592;DHT22;283;53.608;10.046;2022-11-03T01:48:29;7.60;92.30
592;DHT22;283;53.608;10.046;2022-11-03T01:50:59;7.60;92.40
592;DHT22;283;53.608;10.046;2022-11-03T01:53:28;7.60;92.30
592;DHT22;283;53.608;10.046;2022-11-03T01:55:56;7.60;92.30
592;DHT22;283;53.608;10.046;2022-11-03T01:58:24;7.70;92.40
592;DHT22;283;53.608;10.046;2022-11-03T02:00:56;7.70;92.30
592;DHT22;283;53.608;10.046;2022-11-03T02:03:26;7.80;92.20
592;DHT22;283;53.608;10.046;2022-11-03T02:05:54;7.80;92.10
592;DHT22;283;53.608;10.046;2022-11-03T02:08:25;7.80;91.90
592;DHT22;283;53.608;10.046;2022-11-03T02:10:54;7.80;92.10
592;DHT22;283;53.608;10.046;2022-11-03T02:13:23;7.80;92.10
592;DHT22;283;53.608;10.046;2022-11-03T02:18:33;7.80;92.10
592;DHT22;283;53.608;10.046;2022-11-03T02:21:02;7.80;91.90
592;DHT22;283;53.608;10.046;2022-11-03T02:23:35;7.80;91.90
592;DHT22;283;53.608;10.046;2022-11-03T02:26:07;7.80;91.80
592;DHT22;283;53.608;10.046;2022-11-03T02:28:36;7.80;92.00
592;DHT22;283;53.608;10.046;2022-11-03T02:31:06;7.80;92.00
592;DHT22;283;53.608;10.046;2022-11-03T02:33:39;7.90;92.00
592;DHT22;283;53.608;10.046;2022-11-03T02:36:09;7.80;91.90
592;DHT22;283;53.608;10.046;2022-11-03T02:38:40;7.80;92.00
592;DHT22;283;53.608;10.046;2022-11-03T02:41:10;7.80;92.00
592;DHT22;283;53.608;10.046;2022-11-03T02:43:38;7.80;92.10
592;DHT22;283;53.608;10.046;2022-11-03T02:46:08;7.80;92.10
592;DHT22;283;53.608;10.046;2022-11-03T02:48:37;7.80;92.10
592;DHT22;283;53.608;10.046;2022-11-03T02:51:05;7.80;92.10
592;DHT22;283;53.608;10.046;2022-11-03T02:53:34;7.80;92.10
592;DHT22;283;53.608;10.046;2022-11-03T02:56:04;7.90;92.00
592;DHT22;283;53.608;10.046;2022-11-03T02:58:36;7.90;92.10
592;DHT22;283;53.608;10.046;2022-11-03T03:01:06;7.90;92.00
592;DHT22;283;53.608;10.046;2022-11-03T03:03:41;7.90;91.90
592;DHT22;283;53.608;10.046;2022-11-03T03:06:10;7.90;92.00
592;DHT22;283;53.608;10.046;2022-11-03T03:08:40;7.90;92.00
592;DHT22;283;53.608;10.046;2022-11-03T03:11:10;8.00;91.80
592;DHT22;283;53.608;10.046;2022-11-03T03:13:40;8.00;91.80
592;DHT22;283;53.608;10.046;2022-11-03T03:16:11;8.00;91.80
592;DHT22;283;53.608;10.046;2022-11-03T03:18:40;8.00;91.80
592;DHT22;283;53.608;10.046;2022-11-03T03:21:12;8.00;91.80
592;DHT22;283;53.608;10.046;2022-11-03T03:23:40;8.00;91.80
592;DHT22;283;53.608;10.046;2022-11-03T03:26:14;7.90;92.00
592;DHT22;283;53.608;10.046;2022-11-03T03:28:46;7.90;91.80
592;DHT22;283;53.608;10.046;2022-11-03T03:31:16;7.80;91.80
592;DHT22;283;53.608;10.046;2022-11-03T03:33:45;7.70;91.90
592;DHT22;283;53.608;10.046;2022-11-03T03:36:14;7.70;92.00
592;DHT22;283;53.608;10.046;2022-11-03T03:38:45;7.60;92.10
592;DHT22;283;53.608;10.046;2022-11-03T03:41:14;7.20;92.00
592;DHT22;283;53.608;10.046;2022-11-03T03:43:49;7.50;92.30
592;DHT22;283;53.608;10.046;2022-11-03T03:46:18;7.50;92.30
592;DHT22;283;53.608;10.046;2022-11-03T03:48:47;7.50;92.70
592;DHT22;283;53.608;10.046;2022-11-03T03:51:15;7.40;92.40
592;DHT22;283;53.608;10.046;2022-11-03T03:53:48;7.50;92.70
592;DHT22;283;53.608;10.046;2022-11-03T03:56:16;7.40;92.50
592;DHT22;283;53.608;10.046;2022-11-03T03:58:44;7.60;92.70
592;DHT22;283;53.608;10.046;2022-11-03T04:01:13;7.40;92.60
592;DHT22;283;53.608;10.046;2022-11-03T04:03:41;7.40;92.50
592;DHT22;283;53.608;10.046;2022-11-03T04:06:09;7.40;92.70
592;DHT22;283;53.608;10.046;2022-11-03T04:08:36;7.40;92.60
592;DHT22;283;53.608;10.046;2022-11-03T04:11:04;7.40;92.80
592;DHT22;283;53.608;10.046;2022-11-03T04:13:49;7.40;92.60
592;DHT22;283;53.608;10.046;2022-11-03T04:16:36;7.40;92.70
592;DHT22;283;53.608;10.046;2022-11-03T04:19:21;7.40;92.70
592;DHT22;283;53.608;10.046;2022-11-03T04:22:06;7.40;92.80
592;DHT22;283;53.608;10.046;2022-11-03T04:24:42;7.40;92.80
592;DHT22;283;53.608;10.046;2022-11-03T04:27:24;7.40;92.70
592;DHT22;283;53.608;10.046;2022-11-03T04:29:53;7.40;92.90
592;DHT22;283;53.608;10.046;2022-11-03T04:32:24;7.50;92.80
592;DHT22;283;53.608;10.046;2022-11-03T04:34:52;7.50;92.70
592;DHT22;283;53.608;10.046;2022-11-03T04:37:20;7.50;92.90
592;DHT22;283;53.608;10.046;2022-11-03T04:39:47;7.50;92.80
592;DHT22;283;53.608;10.046;2022-11-03T04:42:16;7.50;93.00
592;DHT22;283;53.608;10.046;2022-11-03T04:44:44;7.50;92.90
592;DHT22;283;53.608;10.046;2022-11-03T04:47:13;7.60;92.80
592;DHT22;283;53.608;10.046;2022-11-03T04:49:42;7.60;92.80
592;DHT22;283;53.608;10.046;2022-11-03T04:52:12;7.60;92.80
592;DHT22;283;53.608;10.046;2022-11-03T04:54:40;7.60;92.90
592;DHT22;283;53.608;10.046;2022-11-03T04:57:10;7.60;92.90
592;DHT22;283;53.608;10.046;2022-11-03T04:59:38;7.60;92.90
592;DHT22;283;53.608;10.046;2022-11-03T05:02:10;7.60;92.90
592;DHT22;283;53.608;10.046;2022-11-03T05:04:39;7.60;92.90
592;DHT22;283;53.608;10.046;2022-11-03T05:07:12;7.60;93.00
592;DHT22;283;53.608;10.046;2022-11-03T05:09:44;7.50;92.80
592;DHT22;283;53.608;10.046;2022-11-03T05:12:12;7.60;93.00
592;DHT22;283;53.608;10.046;2022-11-03T05:14:39;7.50;93.10
592;DHT22;283;53.608;10.046;2022-11-03T05:17:13;7.50;93.00
592;DHT22;283;53.608;10.046;2022-11-03T05:19:42;7.40;93.10
592;DHT22;283;53.608;10.046;2022-11-03T05:22:12;7.30;93.30
592;DHT22;283;53.608;10.046;2022-11-03T05:24:44;7.30;93.70
592;DHT22;283;53.608;10.046;2022-11-03T05:27:14;7.20;93.80
592;DHT22;283;53.608;10.046;2022-11-03T05:29:42;7.20;93.90
592;DHT22;283;53.608;10.046;2022-11-03T05:32:10;7.30;93.70
592;DHT22;283;53.608;10.046;2022-11-03T05:34:40;7.20;93.80
592;DHT22;283;53.608;10.046;2022-11-03T05:37:14;7.20;93.90
592;DHT22;283;53.608;10.046;2022-11-03T05:39:54;7.20;94.00
592;DHT22;283;53.608;10.046;2022-11-03T05:42:24;7.40;95.70
592;DHT22;283;53.608;10.046;2022-11-03T05:44:52;7.80;96.00
592;DHT22;283;53.608;10.046;2022-11-03T05:47:20;7.40;95.20
592;DHT22;283;53.608;10.046;2022-11-03T05:49:49;7.50;95.80
592;DHT22;283;53.608;10.046;2022-11-03T05:52:19;7.60;95.90
592;DHT22;283;53.608;10.046;2022-11-03T05:54:48;7.40;94.70
592;DHT22;283;53.608;10.046;2022-11-03T05:57:16;7.60;95.40
592;DHT22;283;53.608;10.046;2022-11-03T05:59:44;7.40;94.50
592;DHT22;283;53.608;10.046;2022-11-03T06:02:18;7.50;95.80
592;DHT22;283;53.608;10.046;2022-11-03T06:04:50;7.50;96.30
592;DHT22;283;53.608;10.046;2022-11-03T06:07:21;7.50;95.30
592;DHT22;283;53.608;10.046;2022-11-03T06:09:50;7.40;95.20
592;DHT22;283;53.608;10.046;2022-11-03T06:12:18;7.40;95.00
592;DHT22;283;53.608;10.046;2022-11-03T06:14:47;7.40;94.80
592;DHT22;283;53.608;10.046;2022-11-03T06:17:17;7.40;95.00
592;DHT22;283;53.608;10.046;2022-11-03T06:19:46;7.20;94.70
592;DHT22;283;53.608;10.046;2022-11-03T06:22:17;7.20;94.50
592;DHT22;283;53.608;10.046;2022-11-03T06:24:48;7.20;94.60
592;DHT22;283;53.608;10.046;2022-11-03T06:27:17;7.20;94.50
592;DHT22;283;53.608;10.046;2022-11-03T06:29:47;7.40;94.70
592;DHT22;283;53.608;10.046;2022-11-03T06:32:16;7.40;95.00
592;DHT22;283;53.608;10.046;2022-11-03T06:34:44;7.40;94.50
592;DHT22;283;53.608;10.046;2022-11-03T06:37:20;7.60;94.40
592;DHT22;283;53.608;10.046;2022-11-03T06:39:50;7.60;94.00
592;DHT22;283;53.608;10.046;2022-11-03T06:42:20;7.70;93.90
592;DHT22;283;53.608;10.046;2022-11-03T06:44:53;7.60;94.00
592;DHT22;283;53.608;10.046;2022-11-03T06:47:21;7.80;94.20
592;DHT22;283;53.608;10.046;2022-11-03T06:49:50;7.70;93.90
592;DHT22;283;53.608;10.046;2022-11-03T06:52:25;7.60;93.80
592;DHT22;283;53.608;10.046;2022-11-03T06:54:57;7.80;94.60
592;DHT22;283;53.608;10.046;2022-11-03T06:57:26;8.00;93.40
592;DHT22;283;53.608;10.046;2022-11-03T06:59:56;7.90;93.50
592;DHT22;283;53.608;10.046;2022-11-03T07:02:48;7.90;93.40
592;DHT22;283;53.608;10.046;2022-11-03T07:05:18;8.00;93.20
592;DHT22;283;53.608;10.046;2022-11-03T07:07:47;8.00;93.30
592;DHT22;283;53.608;10.046;2022-11-03T07:10:16;8.10;93.20
592;DHT22;283;53.608;10.046;2022-11-03T07:12:44;8.10;93.00
592;DHT22;283;53.608;10.046;2022-11-03T07:15:25;8.10;93.20
592;DHT22;283;53.608;10.046;2022-11-03T07:17:57;8.10;93.30
592;DHT22;283;53.608;10.046;2022-11-03T07:20:24;8.10;93.00
592;DHT22;283;53.608;10.046;2022-11-03T07:22:53;8.20;93.30
592;DHT22;283;53.608;10.046;2022-11-03T07:25:22;8.20;93.10
592;DHT22;283;53.608;10.046;2022-11-03T07:27:51;8.30;93.10
592;DHT22;283;53.608;10.046;2022-11-03T07:30:19;8.30;92.80
592;DHT22;283;53.608;10.046;2022-11-03T07:32:48;8.40;92.70
592;DHT22;283;53.608;10.046;2022-11-03T07:35:27;8.50;92.70
592;DHT22;283;53.608;10.046;2022-11-03T07:38:17;8.50;92.50
592;DHT22;283;53.608;10.046;2022-11-03T07:40:46;8.50;92.60
592;DHT22;283;53.608;10.046;2022-11-03T07:43:15;8.60;92.90
592;DHT22;283;53.608;10.046;2022-11-03T07:45:46;8.60;92.70
592;DHT22;283;53.608;10.046;2022-11-03T07:48:19;8.60;92.50
592;DHT22;283;53.608;10.046;2022-11-03T07:50:47;8.70;92.60
592;DHT22;283;53.608;10.046;2022-11-03T07:53:17;8.70;92.50
592;DHT22;283;53.608;10.046;2022-11-03T07:55:53;8.80;92.50
592;DHT22;283;53.608;10.046;2022-11-03T07:58:23;8.70;92.50
592;DHT22;283;53.608;10.046;2022-11-03T08:00:52;8.80;92.60
592;DHT22;283;53.608;10.046;2022-11-03T08:03:29;8.70;92.50
592;DHT22;283;53.608;10.046;2022-11-03T08:05:59;8.80;92.40
592;DHT22;283;53.608;10.046;2022-11-03T08:08:31;8.80;92.40
592;DHT22;283;53.608;10.046;2022-11-03T08:11:00;8.90;92.40
592;DHT22;283;53.608;10.046;2022-11-03T08:13:28;8.90;92.30
592;DHT22;283;53.608;10.046;2022-11-03T08:15:56;9.00;92.30
592;DHT22;283;53.608;10.046;2022-11-03T08:18:24;9.00;92.30
592;DHT22;283;53.608;10.046;2022-11-03T08:20:52;9.00;92.30
592;DHT22;283;53.608;10.046;2022-11-03T08:23:19;8.90;92.50
592;DHT22;283;53.608;10.046;2022-11-03T08:25:52;9.10;92.40
592;DHT22;283;53.608;10.046;2022-11-03T08:28:21;9.20;92.40
592;DHT22;283;53.608;10.046;2022-11-03T08:30:48;9.20;91.90
592;DHT22;283;53.608;10.046;2022-11-03T08:33:16;9.30;92.20
592;DHT22;283;53.608;10.046;2022-11-03T08:35:44;9.40;92.10
592;DHT22;283;53.608;10.046;2022-11-03T08:38:11;9.50;92.00
592;DHT22;283;53.608;10.046;2022-11-03T08:40:39;9.70;91.60
592;DHT22;283;53.608;10.046;2022-11-03T08:43:07;9.40;91.50
592;DHT22;283;53.608;10.046;2022-11-03T08:45:36;9.80;91.60
592;DHT22;283;53.608;10.046;2022-11-03T08:48:04;9.80;91.70
592;DHT22;283;53.608;10.046;2022-11-03T08:50:32;9.90;91.50
592;DHT22;283;53.608;10.046;2022-11-03T08:52:59;10.30;91.00
592;DHT22;283;53.608;10.046;2022-11-03T08:55:27;10.00;90.70
592;DHT22;283;53.608;10.046;2022-11-03T08:57:55;10.20;90.70
592;DHT22;283;53.608;10.046;2022-11-03T09:00:22;10.30;90.60
592;DHT22;283;53.608;10.046;2022-11-03T09:02:51;10.50;90.80
592;DHT22;283;53.608;10.046;2022-11-03T09:05:19;10.50;90.60
592;DHT22;283;53.608;10.046;2022-11-03T09:07:47;10.60;90.50
592;DHT22;283;53.608;10.046;2022-11-03T09:10:34;10.70;90.40
592;DHT22;283;53.608;10.046;2022-11-03T09:13:07;10.70;90.20
592;DHT22;283;53.608;10.046;2022-11-03T09:15:35;10.80;90.00
592;DHT22;283;53.608;10.046;2022-11-03T09:18:04;10.80;90.10
592;DHT22;283;53.608;10.046;2022-11-03T09:20:32;10.90;89.90
592;DHT22;283;53.608;10.046;2022-11-03T09:23:00;11.00;90.00
592;DHT22;283;53.608;10.046;2022-11-03T09:25:28;11.00;89.60
592;DHT22;283;53.608;10.046;2022-11-03T09:27:56;11.10;89.10
592;DHT22;283;53.608;10.046;2022-11-03T09:30:23;11.10;89.30
592;DHT22;283;53.608;10.046;2022-11-03T09:32:51;11.20;89.60
592;DHT22;283;53.608;10.046;2022-11-03T09:35:20;11.30;89.30
592;DHT22;283;53.608;10.046;2022-11-03T09:37:48;11.20;89.00
592;DHT22;283;53.608;10.046;2022-11-03T09:40:15;11.30;88.70
592;DHT22;283;53.608;10.046;2022-11-03T09:42:43;11.40;88.90
592;DHT22;283;53.608;10.046;2022-11-03T09:45:11;11.60;88.40
592;DHT22;283;53.608;10.046;2022-11-03T09:47:39;11.50;88.40
592;DHT22;283;53.608;10.046;2022-11-03T09:50:10;11.50;88.40
592;DHT22;283;53.608;10.046;2022-11-03T09:52:40;11.60;88.60
592;DHT22;283;53.608;10.046;2022-11-03T09:55:16;11.60;88.20
592;DHT22;283;53.608;10.046;2022-11-03T09:57:45;11.80;87.80
592;DHT22;283;53.608;10.046;2022-11-03T10:00:15;11.80;87.90
592;DHT22;283;53.608;10.046;2022-11-03T10:02:44;11.90;87.60
592;DHT22;283;53.608;10.046;2022-11-03T10:05:12;12.00;88.20
592;DHT22;283;53.608;10.046;2022-11-03T10:07:42;12.10;87.10
592;DHT22;283;53.608;10.046;2022-11-03T10:10:14;12.10;87.30
592;DHT22;283;53.608;10.046;2022-11-03T10:12:42;12.20;87.80
592;DHT22;283;53.608;10.046;2022-11-03T10:15:12;12.30;86.60
592;DHT22;283;53.608;10.046;2022-11-03T10:17:41;12.30;86.80
592;DHT22;283;53.608;10.046;2022-11-03T10:20:09;12.40;86.90
592;DHT22;283;53.608;10.046;2022-11-03T10:22:37;12.50;86.00
592;DHT22;283;53.608;10.046;2022-11-03T10:28:01;12.50;86.30
592;DHT22;283;53.608;10.046;2022-11-03T10:30:47;12.60;85.70
592;DHT22;283;53.608;10.046;2022-11-03T10:33:35;12.60;86.50
592;DHT22;283;53.608;10.046;2022-11-03T10:36:04;12.70;85.90
592;DHT22;283;53.608;10.046;2022-11-03T10:38:32;12.80;85.80
592;DHT22;283;53.608;10.046;2022-11-03T10:41:08;12.80;85.00
592;DHT22;283;53.608;10.046;2022-11-03T10:43:38;12.90;85.40
592;DHT22;283;53.608;10.046;2022-11-03T10:46:09;13.00;85.80
592;DHT22;283;53.608;10.046;2022-11-03T10:49:01;13.00;85.20
592;DHT22;283;53.608;10.046;2022-11-03T10:51:30;13.00;85.70
592;DHT22;283;53.608;10.046;2022-11-03T10:53:57;13.00;85.00
592;DHT22;283;53.608;10.046;2022-11-03T10:56:25;13.10;84.80
592;DHT22;283;53.608;10.046;2022-11-03T10:58:54;13.20;85.10
592;DHT22;283;53.608;10.046;2022-11-03T11:01:23;13.20;85.40
592;DHT22;283;53.608;10.046;2022-11-03T11:03:51;13.20;84.50
592;DHT22;283;53.608;10.046;2022-11-03T11:06:22;13.40;85.20
592;DHT22;283;53.608;10.046;2022-11-03T11:08:51;13.50;84.90
592;DHT22;283;53.608;10.046;2022-11-03T11:11:25;13.50;84.40
592;DHT22;283;53.608;10.046;2022-11-03T11:16:47;13.60;84.40
592;DHT22;283;53.608;10.046;2022-11-03T11:19:16;13.70;83.70
592;DHT22;283;53.608;10.046;2022-11-03T11:21:56;13.70;83.30
592;DHT22;283;53.608;10.046;2022-11-03T11:29:53;13.80;84.20
592;DHT22;283;53.608;10.046;2022-11-03T11:35:19;13.80;82.90
592;DHT22;283;53.608;10.046;2022-11-03T11:40:51;13.90;82.90
592;DHT22;283;53.608;10.046;2022-11-03T11:43:24;13.80;83.50
592;DHT22;283;53.608;10.046;2022-11-03T11:48:49;13.90;83.20
592;DHT22;283;53.608;10.046;2022-11-03T11:51:23;13.80;83.50
592;DHT22;283;53.608;10.046;2022-11-03T11:53:52;13.90;83.10
592;DHT22;283;53.608;10.046;2022-11-03T11:56:40;13.90;83.70
592;DHT22;283;53.608;10.046;2022-11-03T11:59:13;13.90;83.70
592;DHT22;283;53.608;10.046;2022-11-03T12:01:50;13.80;83.90
592;DHT22;283;53.608;10.046;2022-11-03T12:04:19;13.90;84.10
592;DHT22;283;53.608;10.046;2022-11-03T12:06:50;13.90;83.80
592;DHT22;283;53.608;10.046;2022-11-03T12:09:19;14.00;83.50
592;DHT22;283;53.608;10.046;2022-11-03T12:11:48;14.10;83.70
592;DHT22;283;53.608;10.046;2022-11-03T12:14:21;14.20;83.70
592;DHT22;283;53.608;10.046;2022-11-03T12:16:49;14.30;83.60
592;DHT22;283;53.608;10.046;2022-11-03T12:19:36;14.20;83.00
592;DHT22;283;53.608;10.046;2022-11-03T12:22:06;14.30;84.30
592;DHT22;283;53.608;10.046;2022-11-03T12:24:50;14.30;83.70
592;DHT22;283;53.608;10.046;2022-11-03T12:27:20;14.30;83.40
592;DHT22;283;53.608;10.046;2022-11-03T12:30:10;14.20;83.70
592;DHT22;283;53.608;10.046;2022-11-03T12:32:38;14.20;83.20
592;DHT22;283;53.608;10.046;2022-11-03T12:35:06;14.20;82.60
592;DHT22;283;53.608;10.046;2022-11-03T12:37:35;14.20;82.70
592;DHT22;283;53.608;10.046;2022-11-03T12:40:03;14.30;82.90
592;DHT22;283;53.608;10.046;2022-11-03T12:42:31;14.40;82.30
592;DHT22;283;53.608;10.046;2022-11-03T12:44:59;14.40;82.10
592;DHT22;283;53.608;10.046;2022-11-03T12:47:27;14.50;82.10
592;DHT22;283;53.608;10.046;2022-11-03T12:49:54;14.50;81.50
592;DHT22;283;53.608;10.046;2022-11-03T12:52:22;14.50;81.90
592;DHT22;283;53.608;10.046;2022-11-03T12:54:51;14.50;81.50
592;DHT22;283;53.608;10.046;2022-11-03T12:57:19;14.50;82.00
592;DHT22;283;53.608;10.046;2022-11-03T12:59:46;14.50;81.60
592;DHT22;283;53.608;10.046;2022-11-03T13:02:14;14.50;81.90
592;DHT22;283;53.608;10.046;2022-11-03T13:04:42;14.40;81.50
592;DHT22;283;53.608;10.046;2022-11-03T13:07:10;14.40;82.60
592;DHT22;283;53.608;10.046;2022-11-03T13:09:37;14.40;82.50
592;DHT22;283;53.608;10.046;2022-11-03T13:12:07;14.30;82.10
592;DHT22;283;53.608;10.046;2022-11-03T13:14:55;14.30;82.20
592;DHT22;283;53.608;10.046;2022-11-03T13:17:23;14.30;82.40
592;DHT22;283;53.608;10.046;2022-11-03T13:19:57;14.30;81.60
592;DHT22;283;53.608;10.046;2022-11-03T13:22:26;14.30;82.20
592;DHT22;283;53.608;10.046;2022-11-03T13:24:54;14.30;82.80
592;DHT22;283;53.608;10.046;2022-11-03T13:27:23;14.40;83.00
592;DHT22;283;53.608;10.046;2022-11-03T13:29:50;14.40;82.00
592;DHT22;283;53.608;10.046;2022-11-03T13:32:20;14.40;82.70
592;DHT22;283;53.608;10.046;2022-11-03T13:34:48;14.40;82.30
592;DHT22;283;53.608;10.046;2022-11-03T13:37:16;14.30;82.70
592;DHT22;283;53.608;10.046;2022-11-03T13:39:43;14.40;82.90
592;DHT22;283;53.608;10.046;2022-11-03T13:42:11;14.40;83.20
592;DHT22;283;53.608;10.046;2022-11-03T13:44:40;14.30;82.70
592;DHT22;283;53.608;10.046;2022-11-03T13:47:08;14.30;82.80
592;DHT22;283;53.608;10.046;2022-11-03T13:49:37;14.30;83.20
592;DHT22;283;53.608;10.046;2022-11-03T13:52:25;14.30;83.20
592;DHT22;283;53.608;10.046;2022-11-03T13:54:54;14.20;83.40
592;DHT22;283;53.608;10.046;2022-11-03T13:57:42;14.00;83.70
592;DHT22;283;53.608;10.046;2022-11-03T14:00:31;13.90;83.80
592;DHT22;283;53.608;10.046;2022-11-03T14:02:58;13.90;84.40
592;DHT22;283;53.608;10.046;2022-11-03T14:05:46;13.80;84.40
592;DHT22;283;53.608;10.046;2022-11-03T14:08:14;13.80;84.70
592;DHT22;283;53.608;10.046;2022-11-03T14:10:42;13.70;84.90
592;DHT22;283;53.608;10.046;2022-11-03T14:13:10;13.70;85.20
592;DHT22;283;53.608;10.046;2022-11-03T14:15:39;13.80;85.20
592;DHT22;283;53.608;10.046;2022-11-03T14:18:06;13.80;85.20
592;DHT22;283;53.608;10.046;2022-11-03T14:20:34;13.70;85.70
592;DHT22;283;53.608;10.046;2022-11-03T14:23:01;13.80;85.70
592;DHT22;283;53.608;10.046;2022-11-03T14:25:30;13.70;85.80
592;DHT22;283;53.608;10.046;2022-11-03T14:27:57;13.70;86.10
592;DHT22;283;53.608;10.046;2022-11-03T14:30:25;13.70;86.60
592;DHT22;283;53.608;10.046;2022-11-03T14:32:54;13.60;86.40
592;DHT22;283;53.608;10.046;2022-11-03T14:35:32;13.70;86.80
592;DHT22;283;53.608;10.046;2022-11-03T14:38:00;13.70;86.90
592;DHT22;283;53.608;10.046;2022-11-03T14:40:29;13.60;86.90
592;DHT22;283;53.608;10.046;2022-11-03T14:43:25;13.70;87.10
592;DHT22;283;53.608;10.046;2022-11-03T14:46:00;13.60;87.10
592;DHT22;283;53.608;10.046;2022-11-03T14:48:29;13.70;87.60
592;DHT22;283;53.608;10.046;2022-11-03T14:50:57;13.60;87.50
592;DHT22;283;53.608;10.046;2022-11-03T14:53:25;13.50;87.50
592;DHT22;283;53.608;10.046;2022-11-03T14:55:57;13.50;87.70
592;DHT22;283;53.608;10.046;2022-11-03T14:58:24;13.50;87.80
592;DHT22;283;53.608;10.046;2022-11-03T15:00:52;13.50;88.20
592;DHT22;283;53.608;10.046;2022-11-03T15:03:20;13.50;88.30
592;DHT22;283;53.608;10.046;2022-11-03T15:05:49;13.50;88.40
592;DHT22;283;53.608;10.046;2022-11-03T15:08:20;13.50;88.50
592;DHT22;283;53.608;10.046;2022-11-03T15:10:48;13.40;88.40
592;DHT22;283;53.608;10.046;2022-11-03T15:13:16;13.40;88.60
592;DHT22;283;53.608;10.046;2022-11-03T15:15:43;13.50;88.50
592;DHT22;283;53.608;10.046;2022-11-03T15:18:11;13.40;88.40
592;DHT22;283;53.608;10.046;2022-11-03T15:20:39;13.40;89.40
592;DHT22;283;53.608;10.046;2022-11-03T15:23:08;13.30;88.60
592;DHT22;283;53.608;10.046;2022-11-03T15:25:55;13.30;88.80
592;DHT22;283;53.608;10.046;2022-11-03T15:28:23;13.20;89.20
592;DHT22;283;53.608;10.046;2022-11-03T15:30:50;13.20;88.80
592;DHT22;283;53.608;10.046;2022-11-03T15:33:18;13.20;89.10
592;DHT22;283;53.608;10.046;2022-11-03T15:35:46;13.10;89.40
592;DHT22;283;53.608;10.046;2022-11-03T15:38:15;13.10;89.50
592;DHT22;283;53.608;10.046;2022-11-03T15:40:42;13.10;89.40
592;DHT22;283;53.608;10.046;2022-11-03T15:43:10;13.10;89.60
592;DHT22;283;53.608;10.046;2022-11-03T15:45:38;13.00;89.90
592;DHT22;283;53.608;10.046;2022-11-03T15:48:06;12.90;89.80
592;DHT22;283;53.608;10.046;2022-11-03T15:50:34;12.80;89.90
592;DHT22;283;53.608;10.046;2022-11-03T15:53:01;12.80;89.70
592;DHT22;283;53.608;10.046;2022-11-03T15:55:30;12.80;90.00
592;DHT22;283;53.608;10.046;2022-11-03T15:57:58;12.80;90.00
592;DHT22;283;53.608;10.046;2022-11-03T16:00:25;12.80;90.00
592;DHT22;283;53.608;10.046;2022-11-03T16:02:53;12.80;90.00
592;DHT22;283;53.608;10.046;2022-11-03T16:05:21;12.90;89.60
592;DHT22;283;53.608;10.046;2022-11-03T16:07:50;12.80;89.80
592;DHT22;283;53.608;10.046;2022-11-03T16:10:18;12.80;89.90
592;DHT22;283;53.608;10.046;2022-11-03T16:12:47;12.80;89.90
592;DHT22;283;53.608;10.046;2022-11-03T16:15:14;12.80;90.00
592;DHT22;283;53.608;10.046;2022-11-03T16:17:42;12.80;90.00
592;DHT22;283;53.608;10.046;2022-11-03T16:20:11;12.70;89.70
592;DHT22;283;53.608;10.046;2022-11-03T16:22:39;12.80;89.90
592;DHT22;283;53.608;10.046;2022-11-03T16:25:07;12.70;90.00
592;DHT22;283;53.608;10.046;2022-11-03T16:27:39;12.70;90.00
592;DHT22;283;53.608;10.046;2022-11-03T16:30:09;12.70;90.10
592;DHT22;283;53.608;10.046;2022-11-03T16:32:37;12.70;90.00
592;DHT22;283;53.608;10.046;2022-11-03T16:35:06;12.70;90.00
592;DHT22;283;53.608;10.046;2022-11-03T16:37:33;12.60;90.10
592;DHT22;283;53.608;10.046;2022-11-03T16:40:01;12.60;90.10
592;DHT22;283;53.608;10.046;2022-11-03T16:42:29;12.50;90.10
592;DHT22;283;53.608;10.046;2022-11-03T16:45:05;12.50;90.10
592;DHT22;283;53.608;10.046;2022-11-03T16:47:34;12.50;90.10
592;DHT22;283;53.608;10.046;2022-11-03T16:50:01;12.60;90.10
592;DHT22;283;53.608;10.046;2022-11-03T16:52:29;12.50;90.00
592;DHT22;283;53.608;10.046;2022-11-03T16:54:57;12.50;90.00
592;DHT22;283;53.608;10.046;2022-11-03T16:57:24;12.60;90.10
592;DHT22;283;53.608;10.046;2022-11-03T16:59:53;12.50;90.10
592;DHT22;283;53.608;10.046;2022-11-03T17:02:26;12.50;90.10
592;DHT22;283;53.608;10.046;2022-11-03T17:04:57;12.50;90.00
592;DHT22;283;53.608;10.046;2022-11-03T17:07:24;12.60;90.00
592;DHT22;283;53.608;10.046;2022-11-03T17:09:52;12.60;90.00